(°C)
-1°
-2°
-3°
-3°
(°C)
-5°
-6°
-7°
-8°
-9°
-9°
-10°
WSW
WSW
WSW
WSW
WSW
WSW
WSW
(كم/سا)
21-33
22-34
22-34
22-35
21-34
20-33
18-32
(مم)
0
0
0
0
0
0
0
(%)
0
0
0
0
0
0
0

مستوى ارتفاع الشمس

/ -49.7°
sun-icon
UV 1
07:46
18:10
قمر المساء (201°)
18:55
09:24

متر ل51.02°شمال 71.47°شرق (UACC)

الوقت الشروط درجة الحرارة/
نقطة الندى
رياح مجال رؤية حالة الطقس غيوم الضغط تغيير خام
VFR 1°C / -3°C 250º 12kt >10km - Broken Clouds 3600ft 1013 No Significant change. Runway 22: Clear and dry, , friction coefficient 0.70. UACC 211800Z 25006MPS 9999 BKN036 01/M03 Q1013 R22/0///70 NOSIG RMK QFE729/0972
VFR 1°C / -3°C 240º 12kt >10km - Broken Clouds 3600ft 1013 No Significant change. Runway 22: Clear and dry, , friction coefficient 0.70. UACC 211730Z 24006MPS 9999 BKN036 01/M03 Q1013 R22/0///70 NOSIG RMK QFE729/0972
VFR 1°C / -2°C 240º 12kt >10km - Broken Clouds 4000ft 1013 No Significant change. Runway 22: Clear and dry, , friction coefficient 0.70. UACC 211700Z 24006MPS 9999 BKN040 01/M02 Q1013 R22/0///70 NOSIG RMK QFE728/0971
VFR 2°C / -2°C 250º 10kt >10km - Overcast 4000ft 1012 No Significant change. Runway 22: Clear and dry, , friction coefficient 0.70. UACC 211630Z 25005MPS 9999 OVC040 02/M02 Q1012 R22/0///70 NOSIG RMK QFE728/0971
VFR 2°C / -2°C 250º 12kt >10km - Overcast 3600ft 1012 No Significant change. Runway 22: Clear and dry, , friction coefficient 0.70. UACC 211600Z 25006MPS 9999 OVC036 02/M02 Q1012 R22/0///70 NOSIG RMK QFE728/0971
VFR 2°C / -2°C 250º 12kt >10km - Overcast 3300ft 1012 No Significant change. Runway 22: Clear and dry, , friction coefficient 0.70. UACC 211530Z 25006MPS 9999 OVC033 02/M02 Q1012 R22/0///70 NOSIG RMK QFE728/0970
VFR 3°C / 0°C 250º 12kt >10km - Few Clouds 3000ft
Overcast 3600ft
1012 No Significant change. Runway 22: Clear and dry, , friction coefficient 0.70. UACC 211500Z 25006MPS 9999 FEW030CB OVC036 03/M00 Q1012 R22/0///70 NOSIG RMK QFE728/0970
VFR 3°C / 0°C 240º 14kt >10km - Scattered Clouds 2500ft
Overcast 3600ft
1011 No Significant change. Runway 22: Clear and dry, , friction coefficient 0.70. UACC 211430Z 24007MPS 9999 SCT025CB OVC036 03/M00 Q1011 R22/0///70 NOSIG RMK QFE727/0970
MVFR 3°C / 0°C 240º 12kt >10km - Scattered Clouds 1000ft
Overcast 3000ft
1011 No Significant change. Runway 22: Clear and dry, , friction coefficient 0.70. UACC 211400Z 24006MPS 9999 SCT010 OVC030CB 03/00 Q1011 R22/0///70 NOSIG RMK QFE727/0970
MVFR 3°C / 1°C 250º 14kt 9000m - Scattered Clouds 1000ft
Overcast 3000ft
1011 No Significant change. Runway 22: Clear and dry, , friction coefficient 0.70. UACC 211330Z 25007MPS 9000 SCT010 OVC030CB 03/01 Q1011 R22/0///70 NOSIG RMK QFE727/0969
MVFR 4°C / 0°C 250º 17kt >10km Light Showers Rain 3.00mm precipitation Vertical Visibility of 0ft.
Broken Clouds 3000ft
1010 No Significant change. Runway 22: Clear and dry, , friction coefficient 0.70. UACC 211300Z 25009MPS 9999 -SHRA SCT015 BKN030CB 04/M00 Q1010 R22/0///70 NOSIG RMK QFE727/0969
VFR 4°C / -1°C 240º 19kt >10km Light Showers Rain 3.00mm precipitation Vertical Visibility of 0ft.
Broken Clouds 4300ft
1010 No Significant change. Runway 22: Clear and dry, , friction coefficient 0.70. UACC 211230Z 24010MPS 9999 -SHRA SCT026CB BKN043 04/M01 Q1010 R22/0///70 NOSIG RMK QFE726/0969
VFR 5°C / -2°C 240º 16kt >10km - Scattered Clouds 3300ft 1010 No Significant change. Runway 22: Clear and dry, , friction coefficient 0.70. UACC 211200Z 24008MPS 9999 SCT033CB 05/M02 Q1010 R22/0///70 NOSIG RMK QFE726/0968
VFR 5°C / -3°C 240º 17kt >10km - Scattered Clouds 4300ft 1010 No Significant change. Runway 22: Clear and dry, , friction coefficient 0.70. UACC 211130Z 24009MPS 9999 SCT043CB 05/M03 Q1010 R22/0///70 NOSIG RMK QFE726/0968
VFR 5°C / -4°C 230º 19kt >10km - Scattered Clouds 4300ft 1009 No Significant change. Runway 22: Clear and dry, , friction coefficient 0.70. UACC 211100Z 23010MPS 9999 SCT043CB 05/M04 Q1009 R22/0///70 NOSIG RMK QFE726/0968
VFR 6°C / -4°C 250º 17kt >10km - Scattered Clouds 4300ft 1009 No Significant change. Runway 22: Clear and dry, , friction coefficient 0.70. UACC 211030Z 25009MPS 9999 SCT043CB 06/M04 Q1009 R22/0///70 NOSIG RMK QFE725/0967
VFR 6°C / -4°C 240º 21kt >10km - Scattered Clouds 4300ft 1009 No Significant change. Runway 22: Clear and dry, , friction coefficient 0.70. UACC 211000Z 24011MPS 9999 SCT043CB 06/M04 Q1009 R22/0///70 NOSIG RMK QFE726/0968
VFR 6°C / -3°C 240º 21kt >10km - Scattered Clouds 4300ft 1009 No Significant change. Runway 22: Clear and dry, , friction coefficient 0.70. UACC 210930Z 24011MPS 9999 SCT043CB 06/M03 Q1009 R22/0///70 NOSIG RMK QFE725/0967
VFR 7°C / -3°C 240º 17kt >10km - Scattered Clouds 4300ft 1008 No Significant change. Runway 22: Wet or puddles, 51-100% contamination, friction coefficient 0.60. UACC 210900Z 24009MPS 9999 SCT043CB 07/M03 Q1008 R22/29//60 NOSIG RMK QFE725/0967
VFR 8°C / -4°C 250º 19kt >10km - Scattered Clouds 4300ft 1008 No Significant change. Runway 22: Wet or puddles, 51-100% contamination, friction coefficient 0.60. UACC 210830Z 25010MPS 9999 SCT043CB 08/M04 Q1008 R22/29//60 NOSIG RMK QFE725/0967
VFR 8°C / -4°C 240º 21kt >10km - Few Clouds 3000ft
Broken Clouds 4300ft
1008 No Significant change. Runway 22: Wet or puddles, 51-100% contamination, friction coefficient 0.60. UACC 210800Z 24011MPS 9999 FEW030CB BKN043 08/M04 Q1008 R22/29//60 NOSIG RMK QFE725/0967
VFR 8°C / 2°C 230º 19kt >10km - Few Clouds 1500ft
Broken Clouds 4300ft
1008 No Significant change. Runway 22: Wet or puddles, 51-100% contamination, friction coefficient 0.60. UACC 210730Z 23010MPS 9999 FEW015 BKN043CB 08/02 Q1008 R22/29//60 NOSIG RMK QFE725/0967
VFR 6°C / 0°C 240º 16kt >10km - Few Clouds 1500ft
Broken Clouds 4300ft
1008 No Significant change. Runway 22: Wet or puddles, 51-100% contamination, friction coefficient 0.60. UACC 210700Z 24008MPS 9999 FEW015 BKN043CB 06/M00 Q1008 R22/29//60 NOSIG RMK QFE725/0967
VFR 6°C / 2°C 250º 16kt >10km - Scattered Clouds 1600ft
Broken Clouds 4300ft
1008 No Significant change. Runway 22: Wet or puddles, 51-100% contamination, friction coefficient 0.60. UACC 210630Z 25008MPS 9999 SCT016 BKN043CB 06/02 Q1008 R22/29//60 NOSIG RMK QFE725/0967

VFR

1°C / -3°C

[أكثر]
رياح 250º 12kt
مجال رؤية >10km
حالة الطقس -
غيوم Broken Clouds 3600ft
الضغط 1013
تغيير No Significant change. Runway 22: Clear and dry, , friction coefficient 0.70.
خام UACC 211800Z 25006MPS 9999 BKN036 01/M03 Q1013 R22/0///70 NOSIG RMK QFE729/0972

VFR

1°C / -3°C

[أكثر]
رياح 240º 12kt
مجال رؤية >10km
حالة الطقس -
غيوم Broken Clouds 3600ft
الضغط 1013
تغيير No Significant change. Runway 22: Clear and dry, , friction coefficient 0.70.
خام UACC 211730Z 24006MPS 9999 BKN036 01/M03 Q1013 R22/0///70 NOSIG RMK QFE729/0972

VFR

1°C / -2°C

[أكثر]
رياح 240º 12kt
مجال رؤية >10km
حالة الطقس -
غيوم Broken Clouds 4000ft
الضغط 1013
تغيير No Significant change. Runway 22: Clear and dry, , friction coefficient 0.70.
خام UACC 211700Z 24006MPS 9999 BKN040 01/M02 Q1013 R22/0///70 NOSIG RMK QFE728/0971

VFR

2°C / -2°C

[أكثر]
رياح 250º 10kt
مجال رؤية >10km
حالة الطقس -
غيوم Overcast 4000ft
الضغط 1012
تغيير No Significant change. Runway 22: Clear and dry, , friction coefficient 0.70.
خام UACC 211630Z 25005MPS 9999 OVC040 02/M02 Q1012 R22/0///70 NOSIG RMK QFE728/0971

VFR

2°C / -2°C

[أكثر]
رياح 250º 12kt
مجال رؤية >10km
حالة الطقس -
غيوم Overcast 3600ft
الضغط 1012
تغيير No Significant change. Runway 22: Clear and dry, , friction coefficient 0.70.
خام UACC 211600Z 25006MPS 9999 OVC036 02/M02 Q1012 R22/0///70 NOSIG RMK QFE728/0971

VFR

2°C / -2°C

[أكثر]
رياح 250º 12kt
مجال رؤية >10km
حالة الطقس -
غيوم Overcast 3300ft
الضغط 1012
تغيير No Significant change. Runway 22: Clear and dry, , friction coefficient 0.70.
خام UACC 211530Z 25006MPS 9999 OVC033 02/M02 Q1012 R22/0///70 NOSIG RMK QFE728/0970

VFR

3°C / 0°C

[أكثر]
رياح 250º 12kt
مجال رؤية >10km
حالة الطقس -
غيوم Few Clouds 3000ft
Overcast 3600ft
الضغط 1012
تغيير No Significant change. Runway 22: Clear and dry, , friction coefficient 0.70.
خام UACC 211500Z 25006MPS 9999 FEW030CB OVC036 03/M00 Q1012 R22/0///70 NOSIG RMK QFE728/0970

VFR

3°C / 0°C

[أكثر]
رياح 240º 14kt
مجال رؤية >10km
حالة الطقس -
غيوم Scattered Clouds 2500ft
Overcast 3600ft
الضغط 1011
تغيير No Significant change. Runway 22: Clear and dry, , friction coefficient 0.70.
خام UACC 211430Z 24007MPS 9999 SCT025CB OVC036 03/M00 Q1011 R22/0///70 NOSIG RMK QFE727/0970

MVFR

3°C / 0°C

[أكثر]
رياح 240º 12kt
مجال رؤية >10km
حالة الطقس -
غيوم Scattered Clouds 1000ft
Overcast 3000ft
الضغط 1011
تغيير No Significant change. Runway 22: Clear and dry, , friction coefficient 0.70.
خام UACC 211400Z 24006MPS 9999 SCT010 OVC030CB 03/00 Q1011 R22/0///70 NOSIG RMK QFE727/0970

MVFR

3°C / 1°C

[أكثر]
رياح 250º 14kt
مجال رؤية 9000m
حالة الطقس -
غيوم Scattered Clouds 1000ft
Overcast 3000ft
الضغط 1011
تغيير No Significant change. Runway 22: Clear and dry, , friction coefficient 0.70.
خام UACC 211330Z 25007MPS 9000 SCT010 OVC030CB 03/01 Q1011 R22/0///70 NOSIG RMK QFE727/0969

MVFR

4°C / 0°C

[أكثر]
رياح 250º 17kt
مجال رؤية >10km
حالة الطقس Light Showers Rain 3.00mm precipitation
غيوم Vertical Visibility of 0ft.
Broken Clouds 3000ft
الضغط 1010
تغيير No Significant change. Runway 22: Clear and dry, , friction coefficient 0.70.
خام UACC 211300Z 25009MPS 9999 -SHRA SCT015 BKN030CB 04/M00 Q1010 R22/0///70 NOSIG RMK QFE727/0969

VFR

4°C / -1°C

[أكثر]
رياح 240º 19kt
مجال رؤية >10km
حالة الطقس Light Showers Rain 3.00mm precipitation
غيوم Vertical Visibility of 0ft.
Broken Clouds 4300ft
الضغط 1010
تغيير No Significant change. Runway 22: Clear and dry, , friction coefficient 0.70.
خام UACC 211230Z 24010MPS 9999 -SHRA SCT026CB BKN043 04/M01 Q1010 R22/0///70 NOSIG RMK QFE726/0969

VFR

5°C / -2°C

[أكثر]
رياح 240º 16kt
مجال رؤية >10km
حالة الطقس -
غيوم Scattered Clouds 3300ft
الضغط 1010
تغيير No Significant change. Runway 22: Clear and dry, , friction coefficient 0.70.
خام UACC 211200Z 24008MPS 9999 SCT033CB 05/M02 Q1010 R22/0///70 NOSIG RMK QFE726/0968

VFR

5°C / -3°C

[أكثر]
رياح 240º 17kt
مجال رؤية >10km
حالة الطقس -
غيوم Scattered Clouds 4300ft
الضغط 1010
تغيير No Significant change. Runway 22: Clear and dry, , friction coefficient 0.70.
خام UACC 211130Z 24009MPS 9999 SCT043CB 05/M03 Q1010 R22/0///70 NOSIG RMK QFE726/0968

VFR

5°C / -4°C

[أكثر]
رياح 230º 19kt
مجال رؤية >10km
حالة الطقس -
غيوم Scattered Clouds 4300ft
الضغط 1009
تغيير No Significant change. Runway 22: Clear and dry, , friction coefficient 0.70.
خام UACC 211100Z 23010MPS 9999 SCT043CB 05/M04 Q1009 R22/0///70 NOSIG RMK QFE726/0968

VFR

6°C / -4°C

[أكثر]
رياح 250º 17kt
مجال رؤية >10km
حالة الطقس -
غيوم Scattered Clouds 4300ft
الضغط 1009
تغيير No Significant change. Runway 22: Clear and dry, , friction coefficient 0.70.
خام UACC 211030Z 25009MPS 9999 SCT043CB 06/M04 Q1009 R22/0///70 NOSIG RMK QFE725/0967

VFR

6°C / -4°C

[أكثر]
رياح 240º 21kt
مجال رؤية >10km
حالة الطقس -
غيوم Scattered Clouds 4300ft
الضغط 1009
تغيير No Significant change. Runway 22: Clear and dry, , friction coefficient 0.70.
خام UACC 211000Z 24011MPS 9999 SCT043CB 06/M04 Q1009 R22/0///70 NOSIG RMK QFE726/0968

VFR

6°C / -3°C

[أكثر]
رياح 240º 21kt
مجال رؤية >10km
حالة الطقس -
غيوم Scattered Clouds 4300ft
الضغط 1009
تغيير No Significant change. Runway 22: Clear and dry, , friction coefficient 0.70.
خام UACC 210930Z 24011MPS 9999 SCT043CB 06/M03 Q1009 R22/0///70 NOSIG RMK QFE725/0967

VFR

7°C / -3°C

[أكثر]
رياح 240º 17kt
مجال رؤية >10km
حالة الطقس -
غيوم Scattered Clouds 4300ft
الضغط 1008
تغيير No Significant change. Runway 22: Wet or puddles, 51-100% contamination, friction coefficient 0.60.
خام UACC 210900Z 24009MPS 9999 SCT043CB 07/M03 Q1008 R22/29//60 NOSIG RMK QFE725/0967

VFR

8°C / -4°C

[أكثر]
رياح 250º 19kt
مجال رؤية >10km
حالة الطقس -
غيوم Scattered Clouds 4300ft
الضغط 1008
تغيير No Significant change. Runway 22: Wet or puddles, 51-100% contamination, friction coefficient 0.60.
خام UACC 210830Z 25010MPS 9999 SCT043CB 08/M04 Q1008 R22/29//60 NOSIG RMK QFE725/0967

VFR

8°C / -4°C

[أكثر]
رياح 240º 21kt
مجال رؤية >10km
حالة الطقس -
غيوم Few Clouds 3000ft
Broken Clouds 4300ft
الضغط 1008
تغيير No Significant change. Runway 22: Wet or puddles, 51-100% contamination, friction coefficient 0.60.
خام UACC 210800Z 24011MPS 9999 FEW030CB BKN043 08/M04 Q1008 R22/29//60 NOSIG RMK QFE725/0967

VFR

8°C / 2°C

[أكثر]
رياح 230º 19kt
مجال رؤية >10km
حالة الطقس -
غيوم Few Clouds 1500ft
Broken Clouds 4300ft
الضغط 1008
تغيير No Significant change. Runway 22: Wet or puddles, 51-100% contamination, friction coefficient 0.60.
خام UACC 210730Z 23010MPS 9999 FEW015 BKN043CB 08/02 Q1008 R22/29//60 NOSIG RMK QFE725/0967

VFR

6°C / 0°C

[أكثر]
رياح 240º 16kt
مجال رؤية >10km
حالة الطقس -
غيوم Few Clouds 1500ft
Broken Clouds 4300ft
الضغط 1008
تغيير No Significant change. Runway 22: Wet or puddles, 51-100% contamination, friction coefficient 0.60.
خام UACC 210700Z 24008MPS 9999 FEW015 BKN043CB 06/M00 Q1008 R22/29//60 NOSIG RMK QFE725/0967

VFR

6°C / 2°C

[أكثر]
رياح 250º 16kt
مجال رؤية >10km
حالة الطقس -
غيوم Scattered Clouds 1600ft
Broken Clouds 4300ft
الضغط 1008
تغيير No Significant change. Runway 22: Wet or puddles, 51-100% contamination, friction coefficient 0.60.
خام UACC 210630Z 25008MPS 9999 SCT016 BKN043CB 06/02 Q1008 R22/29//60 NOSIG RMK QFE725/0967

انقر ل51.02°شمال 71.47°شرق (UACC)

From till


Maximum Temperature 6ºC on . Minimum Temperature -1ºC on .
From till Wind 240º 16kt. Visibility 10km or more. Broken Clouds 1100ft. Broken Clouds 3000ft.
Temporarly from till Wind 250º 16kt. Gust 25kt. Visibility 3100m. Light Showers Snow . Broken Clouds 500ft. Broken Clouds 1100ft.
Temporarly from till Wind 220º 23kt. Gust 33kt. Scattered Clouds 2000ft.
Becoming from till Wind 230º 23kt. Visibility 10km or more. Broken Clouds 1100ft. Broken Clouds 3000ft.
Temporarly from till Wind 220º 23kt. Gust 33kt. Visibility 3100m. Light Showers Rain Light Showers Snow . Scattered Clouds 700ft. Overcast 1100ft.

خام: TAF UACC 211711Z 2118/2218 24008MPS 9999 BKN011 BKN030 TX06/2209Z TNM01/2201Z TEMPO 2118/2205 25008G13MPS 3100 -SHSN BKN005 BKN011CB BECMG 2205/2206 23012MPS TEMPO 2205/2211 22012G17MPS SCT020CB TEMPO 2211/2218 22012G17MPS 3100 -SHRASN SCT007 OVC011CB

صور الأقمار الصناعية الملتقطة و الأمطار حالياً ل51.02°شمال 71.47°شرق

المؤشر يدل على موقع 51.02°شمال 71.47°شرق. [أكثر]

تجمع صورة الأقمار الصناعية في الوقت الفعلي بين الضوء المرئي أثناء النهار والأشعة تحت الحمراء أثناء الليل. لا تبدو الصورة مظلمة ليلاً، لأن الأشعة تحت الحمراء يمكنها الكشف عن الاختلافات في درجة الحرارة. لسوء الحظ ، يصعب التمييز بين السحب المنخفضة والضباب ودرجات حرارة الأرض ، وبالتالي يمكن أن تكون الصور غير مرئية تقريبًا أثناء الليل. يتم تحديث صور الأقمار الصناعية Meteosat الخاصة بأوروبا في الوقت الفعلي كل 5 دقائق، بينما يتم تحديث صور GOES-16 / GOES-17 (أمريكا الشمالية والجنوبية) و Himawari (آسيا) كل 10 دقائق.

حقوق النسخ 2021 EUMETSAT / meteoblue. / حقوق النسخ 2021 meteoblue

رادار وهطول الأمطار التنبؤ الآني ل51.02°شمال 71.47°شرق

رذاذ
ضوء
معتدل
ثقيل
ثقيل جدا
وابل

مؤشر المكان يشير الى 51.02°شمال 71.47°شرق. تظهر في هذه الرسوم المتحركة هطول الامطار بالرادار للساعة الماضية, و توقعات 1h. رذاذ أو تساقط ثلوج خفيف قد يكون غير مرئي للرادار. كثافة هطول الأمطار مرمزة بالألوان وتتراوح من الأزرق الفاتح إلى البرتقالي.